Time;durP1;ratioP1;P1;durP2;ratioP2;P2;SDS_P1;SDS_P2;PMS_P1;PMS_P2;Temp;Humidity;BMP_temperature;BMP_pressure;BME280_temperature;BME280_humidity;BME280_pressure;Samples;Min_cycle;Max_cycle;Signal;HPM_P1;HPM_P2
2023/07/05 00:01:59;;;;;;;2.55;1.70;;;23.00;48.70;;;;;;5013847;28;20041;-75
2023/07/05 00:04:25;;;;;;;2.70;2.08;;;23.00;48.70;;;;;;5013580;28;20050;-75
2023/07/05 00:06:53;;;;;;;4.10;1.65;;;23.00;48.70;;;;;;5013857;28;20017;-75
2023/07/05 00:09:19;;;;;;;2.78;1.73;;;23.00;48.70;;;;;;5013777;28;20314;-75
2023/07/05 00:11:46;;;;;;;2.22;1.70;;;23.00;48.70;;;;;;5013615;28;20080;-74
2023/07/05 00:14:13;;;;;;;2.08;1.70;;;23.00;48.70;;;;;;5014264;28;20500;-75
2023/07/05 00:16:39;;;;;;;2.17;1.42;;;23.00;48.70;;;;;;5014125;28;20088;-75
2023/07/05 00:19:07;;;;;;;2.85;1.55;;;22.90;48.70;;;;;;5013585;28;20092;-75
2023/07/05 00:21:34;;;;;;;4.47;1.80;;;23.00;48.70;;;;;;5014029;28;20576;-75
2023/07/05 00:24:00;;;;;;;2.78;1.70;;;22.90;48.70;;;;;;5013685;28;20050;-75
2023/07/05 00:26:25;;;;;;;2.25;1.65;;;22.90;49.40;;;;;;5013773;28;20034;-76
2023/07/05 00:28:51;;;;;;;2.25;1.73;;;22.90;48.70;;;;;;5013712;28;20168;-75
2023/07/05 00:31:17;;;;;;;2.08;1.60;;;22.90;48.70;;;;;;5014026;28;20029;-75
2023/07/05 00:33:43;;;;;;;2.13;1.52;;;22.90;48.70;;;;;;5013611;28;20026;-75
2023/07/05 00:36:09;;;;;;;2.08;1.73;;;22.90;48.80;;;;;;5013747;28;20026;-75
2023/07/05 00:38:35;;;;;;;3.35;1.70;;;22.90;48.70;;;;;;5013442;28;20030;-76
2023/07/05 00:41:02;;;;;;;3.22;1.60;;;22.90;48.80;;;;;;5013833;28;20468;-75
2023/07/05 00:43:28;;;;;;;2.10;1.63;;;22.90;48.80;;;;;;5013782;28;20508;-76
2023/07/05 00:45:59;;;;;;;2.28;1.83;;;22.80;49.30;;;;;;5013777;28;20159;-75
2023/07/05 00:48:43;;;;;;;1.83;1.50;;;22.90;48.80;;;;;;5013878;28;20041;-75
2023/07/05 00:51:23;;;;;;;2.90;1.60;;;22.80;48.80;;;;;;5013724;28;20625;-75
2023/07/05 00:53:50;;;;;;;;;;;22.80;48.80;;;;;;5014139;28;20022;-74
2023/07/05 00:56:31;;;;;;;3.30;1.70;;;22.80;48.80;;;;;;5013841;28;20024;-70
2023/07/05 00:58:57;;;;;;;;;;;22.80;49.50;;;;;;5013287;28;20034;-70
2023/07/05 01:01:24;;;;;;;2.03;1.40;;;22.80;48.80;;;;;;5012947;28;19951;-69
2023/07/05 01:03:54;;;;;;;1.90;1.33;;;22.80;48.90;;;;;;5012610;28;20037;-70
2023/07/05 01:06:23;;;;;;;2.78;1.60;;;22.80;49.00;;;;;;5012994;28;20494;-70
2023/07/05 01:08:50;;;;;;;2.33;1.65;;;22.70;49.00;;;;;;5012819;28;20056;-70
2023/07/05 01:11:19;;;;;;;2.15;1.83;;;22.80;49.10;;;;;;5013286;28;20021;-75
2023/07/05 01:13:53;;;;;;;1.42;1.33;;;22.70;49.10;;;;;;5013280;28;20034;-75
2023/07/05 01:16:36;;;;;;;2.10;1.65;;;22.70;49.10;;;;;;5013603;28;20029;-75
2023/07/05 01:19:20;;;;;;;2.50;1.58;;;22.70;49.20;;;;;;5013141;28;20034;-76
2023/07/05 01:22:08;;;;;;;1.58;1.30;;;22.70;49.20;;;;;;5013105;28;20022;-75
2023/07/05 01:24:45;;;;;;;2.42;1.60;;;22.70;49.30;;;;;;5012749;28;20527;-70
2023/07/05 01:27:44;;;;;;;1.92;1.10;;;22.70;49.20;;;;;;5013004;28;20105;-74
2023/07/05 01:30:22;;;;;;;2.38;1.20;;;22.70;49.10;;;;;;5012211;28;20026;-74
2023/07/05 01:32:58;;;;;;;2.20;1.35;;;22.70;49.20;;;;;;5012449;28;20045;-75
2023/07/05 01:35:36;;;;;;;1.90;1.20;;;21.60;48.60;;;;;;5012359;28;20084;-75
2023/07/05 01:38:06;;;;;;;1.30;1.20;;;22.70;49.30;;;;;;5012530;28;20437;-75
2023/07/05 01:40:32;;;;;;;2.17;1.25;;;22.60;49.30;;;;;;5013063;28;20563;-76
2023/07/05 01:43:02;;;;;;;1.30;1.20;;;22.60;49.40;;;;;;5012824;28;20128;-75
2023/07/05 01:45:36;;;;;;;;;;;22.60;49.40;;;;;;5013049;28;20018;-75
2023/07/05 01:48:30;;;;;;;2.40;1.33;;;22.60;49.40;;;;;;5012214;28;19913;-75
2023/07/05 01:51:25;;;;;;;2.15;1.20;;;22.60;49.50;;;;;;5012112;28;20104;-74
2023/07/05 01:54:13;;;;;;;2.80;1.45;;;22.60;49.60;;;;;;5012354;28;20076;-69
2023/07/05 01:57:01;;;;;;;1.65;1.02;;;22.60;49.60;;;;;;5012006;28;20491;-69
2023/07/05 01:59:34;;;;;;;1.90;1.20;;;22.60;49.70;;;;;;5011997;28;20030;-71
2023/07/05 02:02:01;;;;;;;1.92;1.50;;;22.60;49.70;;;;;;5012175;28;20026;-70
2023/07/05 02:04:29;;;;;;;2.35;1.30;;;22.50;49.60;;;;;;5011746;28;20185;-70
2023/07/05 02:06:55;;;;;;;1.70;1.20;;;22.50;49.60;;;;;;5012180;28;20025;-71
2023/07/05 02:09:21;;;;;;;1.88;1.38;;;22.50;49.60;;;;;;5011491;28;20038;-70
2023/07/05 02:11:47;;;;;;;1.77;1.00;;;23.10;50.00;;;;;;4994812;28;20385;-69
2023/07/05 02:14:14;;;;;;;2.63;1.40;;;22.50;49.80;;;;;;4994111;28;20105;-69
2023/07/05 02:16:40;;;;;;;2.10;1.40;;;22.50;49.70;;;;;;4994574;28;20042;-72
2023/07/05 02:19:07;;;;;;;3.08;1.38;;;22.50;49.80;;;;;;5011252;28;20496;-71
2023/07/05 02:21:33;;;;;;;1.38;1.00;;;22.40;49.90;;;;;;4994942;28;20560;-76
2023/07/05 02:23:59;;;;;;;2.50;1.13;;;22.40;49.80;;;;;;5010661;28;20555;-75
2023/07/05 02:26:25;;;;;;;1.92;1.27;;;22.40;49.90;;;;;;5010542;28;20113;-75
2023/07/05 02:28:52;;;;;;;2.80;1.25;;;22.40;49.80;;;;;;5010582;28;20042;-75
2023/07/05 02:31:18;;;;;;;2.92;1.42;;;22.40;50.50;;;;;;5011036;28;20034;-74
2023/07/05 02:33:44;;;;;;;1.70;1.33;;;22.40;49.80;;;;;;4994336;28;20041;-74
2023/07/05 02:36:13;;;;;;;2.05;1.55;;;22.30;49.60;;;;;;4994657;28;20046;-75
2023/07/05 02:38:40;;;;;;;2.22;1.67;;;22.30;49.90;;;;;;4994865;28;20096;-70
2023/07/05 02:41:06;;;;;;;2.33;1.45;;;22.30;49.90;;;;;;4995056;28;20060;-70
2023/07/05 02:43:32;;;;;;;2.42;1.42;;;22.30;49.90;;;;;;4998171;28;20034;-70
2023/07/05 02:45:58;;;;;;;2.47;1.63;;;22.30;49.90;;;;;;4998170;28;20444;-70
2023/07/05 02:48:24;;;;;;;2.85;1.33;;;22.30;49.70;;;;;;4997878;28;20061;-70
2023/07/05 02:50:50;;;;;;;2.50;1.38;;;22.20;49.90;;;;;;5014361;28;20069;-70
2023/07/05 02:53:15;;;;;;;4.78;1.88;;;22.20;50.00;;;;;;4997866;28;20058;-70
2023/07/05 02:55:42;;;;;;;1.65;1.30;;;22.20;49.80;;;;;;4997868;28;20447;-70
2023/07/05 02:58:08;;;;;;;2.50;1.42;;;22.20;49.90;;;;;;4998111;28;20092;-70
2023/07/05 03:00:34;;;;;;;2.72;1.73;;;22.10;49.90;;;;;;4997824;28;20045;-70
2023/07/05 03:03:01;;;;;;;2.45;1.55;;;22.20;49.80;;;;;;4997952;28;20033;-70
2023/07/05 03:05:27;;;;;;;3.22;1.83;;;22.20;49.90;;;;;;4998075;28;20140;-75
2023/07/05 03:07:53;;;;;;;2.15;1.40;;;22.10;49.80;;;;;;4997728;28;20100;-74
2023/07/05 03:10:19;;;;;;;2.60;1.90;;;22.10;50.00;;;;;;4997452;28;20489;-74
2023/07/05 03:12:45;;;;;;;2.25;1.65;;;22.10;49.80;;;;;;5013926;28;20025;-74
2023/07/05 03:15:12;;;;;;;2.67;1.70;;;22.10;49.90;;;;;;5015286;28;20380;-75
2023/07/05 03:17:38;;;;;;;4.78;2.38;;;22.10;50.00;;;;;;5015232;28;20041;-69
2023/07/05 03:20:05;;;;;;;3.63;1.73;;;22.10;49.80;;;;;;5015037;28;20056;-70
2023/07/05 03:22:31;;;;;;;3.13;1.70;;;22.00;49.70;;;;;;5014764;28;20026;-70
2023/07/05 03:24:57;;;;;;;2.67;1.50;;;22.00;49.90;;;;;;5014745;28;20032;-70
2023/07/05 03:27:23;;;;;;;2.97;1.70;;;22.00;50.10;;;;;;5014943;28;20096;-70
2023/07/05 03:29:50;;;;;;;2.67;1.98;;;22.00;49.80;;;;;;5014911;28;20365;-69
2023/07/05 03:32:16;;;;;;;2.75;1.95;;;22.00;49.80;;;;;;5014520;28;20018;-70
2023/07/05 03:34:43;;;;;;;2.72;1.80;;;22.00;49.80;;;;;;5015385;28;20022;-74
2023/07/05 03:37:09;;;;;;;3.13;2.13;;;21.90;50.00;;;;;;5014737;28;20068;-74
2023/07/05 03:39:35;;;;;;;2.70;2.17;;;22.00;50.10;;;;;;5014614;28;20400;-74
2023/07/05 03:42:02;;;;;;;3.30;2.35;;;21.90;49.90;;;;;;5014648;28;20097;-75
2023/07/05 03:44:28;;;;;;;2.63;1.92;;;21.80;49.90;;;;;;5014491;28;20084;-75
2023/07/05 03:46:53;;;;;;;2.78;1.77;;;21.80;50.00;;;;;;5014493;28;20021;-70
2023/07/05 03:49:19;;;;;;;3.83;2.20;;;21.80;50.20;;;;;;5014387;28;20026;-70
2023/07/05 03:51:45;;;;;;;1.75;1.58;;;21.80;50.10;;;;;;5014232;28;20076;-69
2023/07/05 03:54:10;;;;;;;3.83;2.15;;;21.80;50.00;;;;;;5013729;28;20104;-69
2023/07/05 03:56:37;;;;;;;3.08;2.17;;;21.80;50.00;;;;;;5014090;28;20026;-70
2023/07/05 03:59:02;;;;;;;4.10;2.55;;;21.80;50.00;;;;;;5014052;28;20038;-69
2023/07/05 04:01:29;;;;;;;4.50;2.50;;;21.80;50.00;;;;;;5013993;28;20026;-70
2023/07/05 04:04:00;;;;;;;4.50;2.47;;;21.80;50.10;;;;;;5014421;28;20572;-77
2023/07/05 04:06:29;;;;;;;5.03;2.40;;;21.80;50.10;;;;;;5014094;28;20361;-74
2023/07/05 04:08:55;;;;;;;3.90;2.25;;;21.70;49.90;;;;;;5013818;28;20472;-75
2023/07/05 04:11:21;;;;;;;5.22;3.00;;;21.70;50.30;;;;;;5013847;28;20094;-74
2023/07/05 04:13:48;;;;;;;3.70;2.20;;;21.70;50.10;;;;;;5014023;28;20030;-74
2023/07/05 04:16:19;;;;;;;4.00;2.22;;;21.70;50.30;;;;;;5013824;28;20388;-76
2023/07/05 04:18:46;;;;;;;4.60;2.25;;;21.70;50.30;;;;;;5013409;28;20056;-75
2023/07/05 04:21:13;;;;;;;3.80;2.35;;;21.60;50.20;;;;;;5013708;28;20026;-76
2023/07/05 04:23:40;;;;;;;2.65;2.13;;;21.60;50.40;;;;;;5013674;28;20029;-76
2023/07/05 04:26:18;;;;;;;2.08;1.77;;;21.60;50.50;;;;;;5013553;28;20026;-75
2023/07/05 04:28:44;;;;;;;2.97;2.30;;;21.60;50.10;;;;;;5013574;28;20115;-76
2023/07/05 04:31:15;;;;;;;4.40;2.95;;;21.60;50.50;;;;;;5014035;28;20117;-76
2023/07/05 04:33:41;;;;;;;4.38;2.65;;;21.60;50.30;;;;;;5012057;28;20029;-76
2023/07/05 04:36:07;;;;;;;3.65;2.00;;;21.60;50.30;;;;;;5013495;28;20054;-76
2023/07/05 04:38:33;;;;;;;3.88;2.10;;;21.60;50.20;;;;;;5011913;28;20026;-76
2023/07/05 04:40:59;;;;;;;2.17;1.98;;;21.60;50.40;;;;;;5013294;28;20051;-76
2023/07/05 04:43:26;;;;;;;3.30;2.15;;;21.70;50.40;;;;;;5013223;28;20034;-70
2023/07/05 04:45:56;;;;;;;4.07;2.60;;;21.60;50.20;;;;;;5011935;28;20029;-70
2023/07/05 04:48:25;;;;;;;3.00;2.22;;;21.60;50.30;;;;;;5013233;28;20033;-70
2023/07/05 04:50:52;;;;;;;3.58;2.35;;;21.60;50.20;;;;;;5013088;28;20504;-70
2023/07/05 04:53:26;;;;;;;2.30;2.00;;;21.60;50.30;;;;;;5013162;28;20033;-70
2023/07/05 04:55:54;;;;;;;3.38;2.10;;;21.60;50.30;;;;;;5013028;28;20034;-70
2023/07/05 04:58:21;;;;;;;3.05;1.95;;;21.60;50.30;;;;;;5012978;28;20481;-70
2023/07/05 05:00:49;;;;;;;3.05;1.77;;;21.50;50.30;;;;;;5013477;28;20062;-76
2023/07/05 05:03:16;;;;;;;3.15;1.83;;;21.50;51.10;;;;;;5013134;28;20030;-75
2023/07/05 05:05:48;;;;;;;3.30;1.70;;;21.50;50.40;;;;;;5011824;28;20148;-76
2023/07/05 05:08:13;;;;;;;2.88;1.77;;;21.50;50.60;;;;;;5011774;28;20032;-75
2023/07/05 05:10:39;;;;;;;1.50;1.30;;;21.50;50.50;;;;;;5011587;28;20022;-76
2023/07/05 05:13:07;;;;;;;2.20;1.20;;;21.50;50.50;;;;;;5012867;28;20065;-76
2023/07/05 05:15:39;;;;;;;3.38;1.50;;;21.50;50.70;;;;;;5012715;28;20030;-75
2023/07/05 05:18:09;;;;;;;2.33;1.40;;;21.40;50.50;;;;;;5012973;28;20065;-75
2023/07/05 05:20:38;;;;;;;2.10;1.67;;;21.40;50.60;;;;;;5013111;28;20459;-76
2023/07/05 05:23:04;;;;;;;2.38;1.63;;;21.40;50.70;;;;;;5011645;28;20025;-76
2023/07/05 05:25:30;;;;;;;2.97;1.55;;;21.40;50.60;;;;;;5016451;28;20022;-76
2023/07/05 05:27:56;;;;;;;2.97;1.50;;;21.50;50.50;;;;;;5013378;28;20033;-76
2023/07/05 05:30:22;;;;;;;1.35;1.25;;;21.40;50.40;;;;;;5012715;28;20036;-76
2023/07/05 05:32:48;;;;;;;3.70;1.45;;;21.40;50.60;;;;;;5012892;28;20018;-77
2023/07/05 05:35:15;;;;;;;2.70;1.55;;;21.40;50.60;;;;;;5012783;28;20037;-77
2023/07/05 05:37:42;;;;;;;5.30;1.35;;;21.40;50.50;;;;;;5012352;28;20050;-75
2023/07/05 05:40:09;;;;;;;2.78;1.15;;;21.30;50.80;;;;;;5012737;28;20062;-71
2023/07/05 05:42:36;;;;;;;2.80;1.50;;;21.30;50.80;;;;;;5012388;28;20534;-72
2023/07/05 05:45:02;;;;;;;3.67;1.33;;;21.30;50.70;;;;;;5012279;28;20463;-71
2023/07/05 05:47:28;;;;;;;2.47;1.10;;;21.30;50.70;;;;;;5012645;28;20049;-71
2023/07/05 05:49:54;;;;;;;4.25;1.05;;;21.30;50.80;;;;;;5012403;28;20034;-72
2023/07/05 05:52:20;;;;;;;3.10;1.10;;;21.30;50.60;;;;;;5012110;28;20491;-71
2023/07/05 05:54:46;;;;;;;2.72;1.02;;;21.30;50.70;;;;;;5012288;28;20546;-70
2023/07/05 05:57:13;;;;;;;2.35;1.08;;;21.20;50.80;;;;;;5012924;28;20018;-74
2023/07/05 05:59:39;;;;;;;2.15;1.13;;;21.20;50.70;;;;;;5012350;28;20078;-75
2023/07/05 06:02:05;;;;;;;1.92;1.08;;;21.20;50.70;;;;;;5011934;28;20022;-76
2023/07/05 06:04:31;;;;;;;1.95;1.30;;;20.30;50.20;;;;;;5012120;28;20129;-74
2023/07/05 06:06:57;;;;;;;2.92;1.10;;;21.20;50.50;;;;;;5012109;28;20022;-75
2023/07/05 06:09:24;;;;;;;4.40;1.27;;;21.20;50.60;;;;;;5012486;28;20022;-77
2023/07/05 06:11:51;;;;;;;3.40;1.20;;;21.10;50.50;;;;;;5012287;28;20093;-74
2023/07/05 06:14:17;;;;;;;2.30;1.10;;;21.10;50.90;;;;;;5012315;28;20018;-74
2023/07/05 06:16:42;;;;;;;2.40;1.30;;;21.10;50.50;;;;;;5011606;28;20033;-74
2023/07/05 06:19:08;;;;;;;3.08;1.38;;;21.10;50.50;;;;;;5011833;28;20076;-74
2023/07/05 06:21:34;;;;;;;2.15;1.05;;;21.10;50.40;;;;;;5011961;28;20032;-74
2023/07/05 06:24:00;;;;;;;2.50;1.08;;;21.00;50.50;;;;;;5011926;28;20030;-74
2023/07/05 06:26:26;;;;;;;4.40;0.90;;;21.00;50.50;;;;;;5011024;28;20026;-70
2023/07/05 06:28:52;;;;;;;1.92;0.90;;;21.00;50.40;;;;;;5012301;28;20025;-70
2023/07/05 06:31:19;;;;;;;4.30;0.95;;;21.00;50.50;;;;;;5012253;28;20427;-71
2023/07/05 06:33:45;;;;;;;2.70;1.30;;;21.00;50.30;;;;;;5012340;28;20396;-70
2023/07/05 06:36:11;;;;;;;2.05;0.82;;;21.00;50.90;;;;;;5012026;28;20050;-71
2023/07/05 06:38:37;;;;;;;4.10;1.42;;;21.00;50.40;;;;;;5011944;28;20484;-71
2023/07/05 06:41:04;;;;;;;4.30;1.48;;;21.00;50.60;;;;;;5011864;28;20026;-70
2023/07/05 06:43:29;;;;;;;3.53;1.10;;;21.00;50.60;;;;;;5012545;28;20026;-76
2023/07/05 06:45:56;;;;;;;4.38;1.30;;;21.00;50.50;;;;;;5012010;28;20035;-75
2023/07/05 06:48:23;;;;;;;4.65;1.30;;;20.90;50.60;;;;;;5010778;28;20030;-75
2023/07/05 06:50:54;;;;;;;3.58;1.10;;;20.90;50.40;;;;;;4995093;28;20050;-74
2023/07/05 06:53:21;;;;;;;2.65;0.90;;;20.90;50.70;;;;;;4994943;28;20027;-76
2023/07/05 06:55:49;;;;;;;3.97;1.48;;;20.90;50.80;;;;;;4994894;28;20030;-77
2023/07/05 06:58:17;;;;;;;2.95;1.05;;;20.80;51.00;;;;;;5012245;28;20595;-76
2023/07/05 07:00:45;;;;;;;4.22;1.42;;;20.80;51.10;;;;;;4994811;28;20385;-77
2023/07/05 07:03:12;;;;;;;1.40;0.70;;;20.70;51.00;;;;;;4994712;28;20099;-77
2023/07/05 07:05:38;;;;;;;5.15;1.00;;;;;;;;;;4994120;28;20080;-77
2023/07/05 07:08:04;;;;;;;3.63;1.20;;;20.70;50.50;;;;;;5010672;28;20037;-78
2023/07/05 07:10:30;;;;;;;2.17;0.88;;;20.70;51.30;;;;;;5010616;28;20034;-77
2023/07/05 07:12:56;;;;;;;2.13;1.02;;;20.70;51.10;;;;;;4994629;28;20095;-77
2023/07/05 07:15:22;;;;;;;1.58;0.82;;;20.70;51.10;;;;;;5011532;28;20037;-73
2023/07/05 07:17:49;;;;;;;2.83;0.93;;;20.60;51.30;;;;;;5012183;28;20045;-74
2023/07/05 07:20:15;;;;;;;4.72;1.60;;;20.60;51.20;;;;;;5013731;28;20072;-72
2023/07/05 07:22:41;;;;;;;3.83;1.40;;;20.60;51.40;;;;;;5010335;28;20064;-72
2023/07/05 07:25:08;;;;;;;3.22;0.90;;;20.70;51.50;;;;;;5010658;28;20200;-72
2023/07/05 07:27:34;;;;;;;3.17;1.20;;;20.60;51.60;;;;;;5010300;28;20041;-69
2023/07/05 07:30:00;;;;;;;3.63;1.10;;;20.60;51.50;;;;;;4997738;28;20034;-71
2023/07/05 07:32:25;;;;;;;3.22;1.25;;;20.60;51.50;;;;;;5013939;28;20041;-77
2023/07/05 07:34:53;;;;;;;3.45;0.82;;;20.60;51.60;;;;;;5014398;28;20038;-78
2023/07/05 07:37:19;;;;;;;3.22;1.35;;;20.60;51.70;;;;;;4997821;28;20030;-75
2023/07/05 07:39:45;;;;;;;2.78;1.10;;;20.60;51.50;;;;;;4997675;28;20050;-74
2023/07/05 07:42:11;;;;;;;2.67;1.42;;;20.60;51.60;;;;;;4997722;28;20515;-77
2023/07/05 07:44:37;;;;;;;5.28;1.55;;;20.50;51.70;;;;;;4998067;28;20125;-75
2023/07/05 07:47:04;;;;;;;4.53;1.20;;;20.50;51.60;;;;;;5014256;28;20034;-77
2023/07/05 07:49:30;;;;;;;4.65;1.20;;;20.50;51.90;;;;;;5013998;28;20045;-76
2023/07/05 07:51:56;;;;;;;2.15;0.90;;;20.50;51.70;;;;;;4998094;28;20033;-72
2023/07/05 07:54:26;;;;;;;2.95;1.13;;;20.50;51.80;;;;;;4997580;28;20034;-71
2023/07/05 07:56:55;;;;;;;5.07;1.43;;;20.50;51.80;;;;;;4997749;28;20023;-71
2023/07/05 07:59:22;;;;;;;2.60;0.77;;;20.60;51.80;;;;;;5014869;28;20029;-71
2023/07/05 08:01:48;;;;;;;3.60;1.20;;;20.60;51.80;;;;;;5014507;28;20014;-71
2023/07/05 08:04:15;;;;;;;3.55;1.50;;;20.60;51.70;;;;;;5014362;28;20052;-71
2023/07/05 08:06:44;;;;;;;3.40;1.17;;;20.50;51.90;;;;;;5014423;28;20029;-71
2023/07/05 08:09:14;;;;;;;3.28;1.42;;;20.50;51.90;;;;;;5014869;28;20025;-77
2023/07/05 08:11:40;;;;;;;;;;;20.50;51.90;;;;;;5015098;28;20025;-76
2023/07/05 08:14:07;;;;;;;5.30;1.55;;;20.50;52.00;;;;;;5014483;28;19913;-78
2023/07/05 08:16:34;;;;;;;2.65;1.08;;;20.50;52.00;;;;;;5014566;28;20048;-77
2023/07/05 08:19:00;;;;;;;7.30;1.48;;;20.50;52.20;;;;;;5014602;28;20045;-77
2023/07/05 08:21:26;;;;;;;4.82;1.42;;;20.40;52.30;;;;;;5014391;28;20073;-79
2023/07/05 08:23:52;;;;;;;4.32;1.80;;;20.40;52.60;;;;;;5014755;28;20026;-75
2023/07/05 08:26:18;;;;;;;4.10;1.27;;;20.40;52.50;;;;;;5013888;28;20052;-73
2023/07/05 08:28:45;;;;;;;3.22;1.40;;;20.40;52.50;;;;;;5015873;28;20086;-77
2023/07/05 08:31:12;;;;;;;3.95;1.13;;;20.40;52.40;;;;;;5014315;28;20084;-78
2023/07/05 08:33:38;;;;;;;4.88;1.30;;;20.40;52.60;;;;;;5014306;28;20026;-78
2023/07/05 08:36:04;;;;;;;3.90;1.38;;;20.50;52.70;;;;;;5013836;28;20028;-79
2023/07/05 08:38:30;;;;;;;3.90;1.20;;;20.50;52.60;;;;;;5013824;28;20042;-79
2023/07/05 08:41:09;;;;;;;4.00;1.27;;;20.60;52.50;;;;;;5013627;28;20084;-80
2023/07/05 08:43:49;;;;;;;3.28;1.20;;;20.60;52.60;;;;;;5013716;28;20484;-84
2023/07/05 08:46:16;;;;;;;4.30;1.30;;;20.60;52.40;;;;;;5013800;28;20084;-73
2023/07/05 08:48:44;;;;;;;2.75;0.85;;;20.60;52.40;;;;;;5013659;28;20632;-73
2023/07/05 08:51:12;;;;;;;3.13;1.00;;;20.60;52.50;;;;;;5013812;28;20061;-71
2023/07/05 08:53:48;;;;;;;4.53;1.20;;;20.70;52.60;;;;;;5013435;28;20021;-72
2023/07/05 08:56:24;;;;;;;2.78;0.85;;;20.70;52.60;;;;;;5013537;28;20497;-72
2023/07/05 08:59:27;;;;;;;2.30;1.15;;;20.70;52.70;;;;;;5013290;28;20397;-72
2023/07/05 09:01:56;;;;;;;3.92;1.27;;;20.50;70.50;;;;;;5013102;28;20080;-71
2023/07/05 09:04:25;;;;;;;1.63;1.10;;;20.70;52.60;;;;;;5012995;28;20390;-81
2023/07/05 09:06:58;;;;;;;3.60;1.00;;;20.70;52.70;;;;;;5013119;28;20057;-81
2023/07/05 09:09:44;;;;;;;2.75;1.10;;;20.70;52.60;;;;;;5013487;28;20036;-82
2023/07/05 09:12:17;;;;;;;4.18;1.30;;;20.80;52.70;;;;;;5013109;28;20021;-81
2023/07/05 09:15:18;;;;;;;4.00;0.95;;;20.80;52.80;;;;;;5013073;28;20057;-82
2023/07/05 09:17:52;;;;;;;3.25;1.17;;;20.80;52.80;;;;;;4970624;28;20040;-82
2023/07/05 09:20:55;;;;;;;3.63;1.25;;;20.90;52.60;;;;;;5012916;28;20077;-81
2023/07/05 09:23:38;;;;;;;4.15;1.50;;;20.90;52.70;;;;;;5013077;28;20476;-72
2023/07/05 09:26:15;;;;;;;3.90;1.38;;;20.90;52.70;;;;;;5012704;28;20021;-73
2023/07/05 09:29:25;;;;;;;2.97;1.10;;;20.90;52.90;;;;;;5012584;28;20026;-72
2023/07/05 09:31:52;;;;;;;5.72;1.33;;;20.90;52.70;;;;;;5012807;28;20041;-73
2023/07/05 09:34:36;;;;;;;2.95;1.05;;;21.00;52.90;;;;;;5012719;28;20508;-73
2023/07/05 09:37:16;;;;;;;2.97;0.80;;;20.90;52.80;;;;;;5011300;28;20018;-73
2023/07/05 09:40:00;;;;;;;4.63;1.23;;;21.00;52.90;;;;;;5012514;28;20037;-72
2023/07/05 09:42:34;;;;;;;4.18;1.40;;;21.00;52.50;;;;;;5012909;28;20075;-72
2023/07/05 09:45:00;;;;;;;4.68;1.23;;;21.00;52.60;;;;;;5012415;28;20034;-74
2023/07/05 09:47:27;;;;;;;2.78;0.82;;;21.10;52.70;;;;;;5012545;28;20025;-73
2023/07/05 09:49:53;;;;;;;3.10;1.05;;;21.10;52.70;;;;;;5012419;28;20018;-70
2023/07/05 09:52:24;;;;;;;4.43;1.20;;;21.10;52.60;;;;;;5012172;28;20409;-71
2023/07/05 09:54:59;;;;;;;5.10;1.23;;;21.10;52.70;;;;;;5012701;28;20097;-74
2023/07/05 09:57:25;;;;;;;4.47;0.88;;;21.10;52.80;;;;;;5012704;28;20028;-72
2023/07/05 09:59:52;;;;;;;3.75;0.90;;;21.20;52.60;;;;;;5012290;28;20073;-79
2023/07/05 10:02:23;;;;;;;3.03;0.85;;;21.20;52.50;;;;;;5012591;28;20480;-78
2023/07/05 10:04:52;;;;;;;3.58;0.77;;;21.20;52.50;;;;;;5012121;28;20366;-78
2023/07/05 10:07:21;;;;;;;3.67;1.23;;;21.20;52.40;;;;;;5012229;28;20014;-80
2023/07/05 10:10:08;;;;;;;2.55;1.15;;;21.30;52.50;;;;;;5012017;28;20084;-75
2023/07/05 10:12:40;;;;;;;5.13;1.33;;;21.30;53.10;;;;;;5012138;28;20162;-77
2023/07/05 10:15:23;;;;;;;4.55;1.13;;;21.30;52.30;;;;;;5010779;28;20022;-77
2023/07/05 10:17:53;;;;;;;2.65;0.90;;;21.40;52.30;;;;;;5011592;28;20065;-74
2023/07/05 10:20:37;;;;;;;4.18;0.95;;;21.50;52.20;;;;;;5012206;28;20388;-73
2023/07/05 10:23:22;;;;;;;4.00;1.20;;;21.50;52.10;;;;;;5012092;28;20104;-73
2023/07/05 10:25:49;;;;;;;2.25;1.10;;;21.50;52.20;;;;;;5012084;28;20388;-72
2023/07/05 10:28:18;;;;;;;3.35;1.00;;;21.60;52.10;;;;;;5011919;28;20022;-73
2023/07/05 10:30:55;;;;;;;4.35;1.27;;;21.60;52.00;;;;;;5011927;28;20738;-72
2023/07/05 10:33:25;;;;;;;2.05;0.98;;;21.60;51.90;;;;;;5012092;28;20025;-73
2023/07/05 10:36:09;;;;;;;4.65;1.20;;;21.60;51.80;;;;;;5011908;28;20026;-77
2023/07/05 10:38:44;;;;;;;6.57;1.20;;;21.70;51.70;;;;;;5012223;28;20132;-75
2023/07/05 10:41:19;;;;;;;2.45;0.90;;;21.60;51.70;;;;;;5012030;28;20018;-77
2023/07/05 10:44:16;;;;;;;2.42;0.93;;;21.70;51.90;;;;;;5011946;28;20045;-77
2023/07/05 10:46:45;;;;;;;4.13;1.20;;;21.70;51.90;;;;;;5005480;28;20099;-74
2023/07/05 10:49:14;;;;;;;1.77;0.85;;;21.70;51.80;;;;;;5011732;28;20152;-75
2023/07/05 10:51:44;;;;;;;4.93;1.23;;;21.80;51.80;;;;;;5011718;28;20504;-77
2023/07/05 10:54:20;;;;;;;;;;;21.80;51.80;;;;;;5012261;28;20040;-73
2023/07/05 10:56:47;;;;;;;2.97;0.93;;;21.90;51.60;;;;;;5011871;28;20039;-73
2023/07/05 10:59:21;;;;;;;4.45;0.95;;;21.90;51.60;;;;;;5011867;28;20121;-73
2023/07/05 11:01:55;;;;;;;3.65;0.80;;;21.90;52.30;;;;;;5011859;28;20026;-73
2023/07/05 11:04:28;;;;;;;4.38;1.10;;;21.90;51.80;;;;;;5014579;28;20552;-73
2023/07/05 11:07:00;;;;;;;1.15;0.80;;;21.90;51.70;;;;;;5015702;28;20033;-72
2023/07/05 11:09:28;;;;;;;3.22;0.95;;;21.90;51.80;;;;;;5015356;28;20030;-73
2023/07/05 11:11:58;;;;;;;4.40;1.50;;;22.00;52.20;;;;;;5015360;28;20034;-72
2023/07/05 11:14:28;;;;;;;;;;;22.00;51.90;;;;;;5015768;28;20030;-71
2023/07/05 11:16:55;;;;;;;1.52;0.82;;;22.10;51.70;;;;;;5015165;28;20375;-71
2023/07/05 11:19:27;;;;;;;4.28;1.08;;;22.10;51.80;;;;;;5015208;28;20030;-72
2023/07/05 11:21:53;;;;;;;6.47;1.60;;;22.00;51.70;;;;;;5015419;28;20018;-71
2023/07/05 11:24:31;;;;;;;4.35;0.90;;;22.10;51.80;;;;;;5015317;28;20026;-71
2023/07/05 11:26:59;;;;;;;5.05;1.17;;;22.10;51.80;;;;;;5015351;28;20044;-73
2023/07/05 11:29:25;;;;;;;3.47;1.33;;;22.10;52.50;;;;;;5014929;28;20018;-71
2023/07/05 11:31:51;;;;;;;3.47;0.90;;;22.10;51.80;;;;;;5015054;28;20033;-72
2023/07/05 11:34:20;;;;;;;4.28;0.85;;;22.10;52.00;;;;;;5015087;28;20078;-72
2023/07/05 11:36:50;;;;;;;4.63;0.95;;;22.10;52.20;;;;;;5014788;28;20029;-71
2023/07/05 11:39:41;;;;;;;3.42;1.08;;;22.10;52.10;;;;;;5015037;28;20088;-72
2023/07/05 11:42:16;;;;;;;2.08;1.05;;;22.00;52.00;;;;;;5004019;28;20037;-72
2023/07/05 11:44:44;;;;;;;2.70;0.80;;;22.20;69.50;;;;;;5014740;28;20105;-72
2023/07/05 11:47:34;;;;;;;5.70;1.20;;;22.10;52.10;;;;;;5014595;28;20030;-72
2023/07/05 11:50:07;;;;;;;3.28;0.90;;;22.10;52.00;;;;;;5002842;28;20042;-72
2023/07/05 11:52:36;;;;;;;5.85;1.30;;;22.10;51.90;;;;;;5014897;28;20412;-72
2023/07/05 11:55:09;;;;;;;2.60;0.80;;;22.20;51.90;;;;;;5014464;28;20068;-72
2023/07/05 11:57:53;;;;;;;3.85;0.90;;;22.20;51.90;;;;;;5014739;28;20109;-72
2023/07/05 12:00:19;;;;;;;1.75;0.90;;;22.10;51.90;;;;;;5014633;28;20033;-73
2023/07/05 12:02:57;;;;;;;4.28;1.30;;;22.10;51.90;;;;;;5014265;28;20026;-72
2023/07/05 12:05:27;;;;;;;1.88;0.65;;;22.10;51.90;;;;;;5014316;28;20050;-72
2023/07/05 12:08:15;;;;;;;2.87;0.90;;;22.10;51.90;;;;;;5014413;28;20018;-74
2023/07/05 12:10:52;;;;;;;3.70;1.58;;;22.20;52.10;;;;;;5014380;28;20022;-75
2023/07/05 12:13:23;;;;;;;2.78;1.15;;;22.10;52.10;;;;;;5014054;28;20036;-74
2023/07/05 12:15:50;;;;;;;1.10;0.75;;;22.10;51.90;;;;;;5014145;28;20062;-73
2023/07/05 12:18:17;;;;;;;4.80;0.90;;;22.20;51.60;;;;;;5014122;28;20048;-74
2023/07/05 12:20:47;;;;;;;2.08;1.00;;;22.30;51.30;;;;;;5013977;28;20029;-74
2023/07/05 12:23:16;;;;;;;2.15;0.90;;;22.50;51.00;;;;;;5014009;28;20092;-74
2023/07/05 12:25:49;;;;;;;1.67;0.73;;;22.50;50.80;;;;;;5014003;28;20029;-74
2023/07/05 12:28:36;;;;;;;3.15;0.93;;;22.50;50.70;;;;;;5013913;28;20104;-72
2023/07/05 12:31:12;;;;;;;2.50;1.25;;;22.50;50.90;;;;;;5013195;28;20030;-72
2023/07/05 12:33:39;;;;;;;2.83;0.88;;;22.60;50.90;;;;;;5013602;28;20025;-72
2023/07/05 12:36:12;;;;;;;3.30;1.02;;;22.60;50.80;;;;;;5013887;28;20050;-72
2023/07/05 12:38:41;;;;;;;3.00;0.90;;;22.60;50.80;;;;;;5013476;28;20029;-71
2023/07/05 12:41:24;;;;;;;1.02;0.85;;;22.70;50.70;;;;;;5013420;28;20029;-72
2023/07/05 12:43:59;;;;;;;2.10;0.90;;;22.70;50.70;;;;;;5013734;28;20144;-72
2023/07/05 12:46:28;;;;;;;5.45;0.77;;;22.80;50.40;;;;;;5012578;28;20021;-74
2023/07/05 12:48:55;;;;;;;3.55;1.52;;;22.90;50.20;;;;;;5013380;28;20075;-74
2023/07/05 12:51:24;;;;;;;2.63;0.90;;;23.00;50.10;;;;;;5013783;28;20148;-74
2023/07/05 12:53:56;;;;;;;1.50;0.85;;;23.00;49.70;;;;;;5012622;28;20105;-75
2023/07/05 12:56:32;;;;;;;4.57;1.02;;;23.10;49.00;;;;;;5013905;28;20026;-75
2023/07/05 12:59:03;;;;;;;2.78;0.93;;;23.10;49.50;;;;;;5013814;28;20034;-76
2023/07/05 13:01:41;;;;;;;3.60;0.80;;;23.20;49.60;;;;;;5013737;28;20152;-73
2023/07/05 13:04:14;;;;;;;2.78;0.90;;;23.10;49.70;;;;;;5013082;28;20151;-73